Cataldo, ID

4:21 AM PST on December 25, 2014 (GMT -0800)
Diamond Street | Change Station
CLOSE
Current Station
Personal Weather Station
Location: Kellogg, ID
Elevation: 2280 ft
Nearby Weather Stations

Elev 2280 ft 47.54 °N, 116.13 °W | Updated 19 seconds ago

Mostly Cloudy
Mostly Cloudy
31.4 °F
Feels Like 31 °F
N
0.0
Wind Variable Wind from SE
Gusts 6.0 mph

Today
High -- | Low -- °F
--% Chance of Precip.
Yesterday
High -- | Low -- °F
Precip. -- in
7:32 AM 3:59 PM
Waxing Crescent, 16% visible
Pressure 29.88 in
Visibility 0.5 miles
Clouds Overcast 200 ft
Windchill 31 °F
Dew Point 30 °F
Humidity 96%
Rainfall 0.00 in
Snow Depth Not available.
UV 0 out of 12
Pollen .10 out of 12
Air Quality Not available.
Flu Activity Not available.
METAR KCOE 251215Z AUTO 26003KT 1/2SM OVC002 M01/M01 A2988 RMK AO1

More Conditions Fewer Conditions

Pressure 29.88 in
Visibility 0.5 miles
Clouds Overcast 200 ft
Windchill 31 °F
Dew Point 30 °F
Humidity 96%
Rainfall 0.00 in
Snow Depth Not available.
UV 0 out of 12
Pollen .10 out of 12
Air Quality Not available.
Flu Activity Not available.
METAR KCOE 251215Z AUTO 26003KT 1/2SM OVC002 M01/M01 A2988 RMK AO1

More Conditions Fewer Conditions

10-Day Weather Forecast

Almanac

Astronomy

Dec. 25, 2014 Rise Set
Actual Time
Civil Twilight
Nautical Twilight
Astronomical Twilight
Moon
Length of Visible Light
Length of Day
Tomorrow will be .
, % of the Moon is Illuminated

Today's Extremes

State Highs State Lows

Community

WunderPhotos

Upload Photos

1,780,266 photos uploaded!

WunderBlogs® & News

Nearby

Air Quality

  Air Quality AQ Index Pollutant
Not available.

Snow Depth

Station Depth Elevation

Earthquake Activity

City Distance Mag. Time & Date
Minimum magnitude displayed is 2.5.

Coastal Water Temperatures

Place Temperature

Nearby Weather Stations